Time;durP1;ratioP1;P1;durP2;ratioP2;P2;SDS_P1;SDS_P2;PMS_P1;PMS_P2;Temp;Humidity;BMP_temperature;BMP_pressure;BME280_temperature;BME280_humidity;BME280_pressure;Samples;Min_cycle;Max_cycle;Signal;HPM_P1;HPM_P2
2023/11/02 00:00:35;;;;;;;6.10;5.60;;;;;;;18.27;55.09;101464.84;110757;1253;22906;-55
2023/11/02 00:03:06;;;;;;;6.30;5.70;;;;;;;18.25;54.90;101460.55;110740;1264;22344;-56
2023/11/02 00:05:54;;;;;;;6.90;6.00;;;;;;;18.21;54.62;101462.80;110774;1254;22183;-54
2023/11/02 00:08:23;;;;;;;6.10;5.60;;;;;;;18.17;54.51;101461.91;110587;1256;22161;-56
2023/11/02 00:10:50;;;;;;;6.80;6.20;;;;;;;18.13;54.56;101463.52;110630;1256;22319;-55
2023/11/02 00:13:18;;;;;;;6.10;5.60;;;;;;;18.10;54.48;101468.73;110728;1263;22399;-62
2023/11/02 00:15:44;;;;;;;6.00;5.50;;;;;;;18.08;54.42;101468.82;110503;1264;22153;-54
2023/11/02 00:18:11;;;;;;;6.70;5.80;;;;;;;18.05;54.38;101465.95;110774;1256;22167;-57
2023/11/02 00:20:38;;;;;;;6.30;5.70;;;;;;;18.03;54.43;101471.65;110845;1253;22224;-54
2023/11/02 00:23:05;;;;;;;7.20;5.90;;;;;;;17.99;54.47;101471.11;110816;1262;22406;-55
2023/11/02 00:25:48;;;;;;;6.60;5.80;;;;;;;17.97;54.57;101473.15;110784;1254;22141;-55
2023/11/02 00:28:15;;;;;;;7.10;6.40;;;;;;;17.94;54.60;101471.88;110756;1255;22415;-55
2023/11/02 00:30:45;;;;;;;6.90;6.30;;;;;;;17.91;54.68;101470.93;110713;1254;22472;-58
2023/11/02 00:33:15;;;;;;;7.30;6.60;;;;;;;17.87;54.89;101472.10;110396;1267;22366;-56
2023/11/02 00:35:43;;;;;;;7.10;6.40;;;;;;;17.87;55.02;101475.47;110744;1262;22305;-60
2023/11/02 00:38:10;;;;;;;7.40;6.60;;;;;;;17.85;55.12;101471.48;110775;1262;22334;-57
2023/11/02 00:40:37;;;;;;;11.00;6.90;;;;;;;17.85;55.23;101475.34;110797;1263;22183;-56
2023/11/02 00:43:08;;;;;;;6.80;6.00;;;;;;;17.85;55.37;101478.52;110592;1263;23089;-54
2023/11/02 00:45:37;;;;;;;;;;;;;;;17.84;55.36;101477.52;110589;1256;23126;-55
2023/11/02 00:48:06;;;;;;;8.10;6.90;;;;;;;17.83;55.27;101485.27;110715;1256;23097;-57
2023/11/02 00:51:20;;;;;;;8.70;6.70;;;;;;;17.82;55.17;101487.61;110549;1256;23202;-62
2023/11/02 00:53:50;;;;;;;7.30;6.60;;;;;;;17.81;54.72;101488.17;110590;1255;22479;-57
2023/11/02 00:56:17;;;;;;;8.40;6.80;;;;;;;17.78;54.49;101485.99;110740;1256;22576;-55
2023/11/02 00:58:50;;;;;;;6.80;6.20;;;;;;;17.75;54.48;101486.66;110657;1266;22871;-58
2023/11/02 01:01:21;;;;;;;6.70;6.10;;;;;;;17.72;54.48;101484.15;110504;1266;22969;-56
2023/11/02 01:03:53;;;;;;;7.50;6.60;;;;;;;17.68;54.53;101476.89;110560;1266;22219;-56
2023/11/02 01:06:27;;;;;;;6.90;6.30;;;;;;;17.62;54.83;101468.75;110750;1262;22401;-55
2023/11/02 01:09:02;;;;;;;7.50;6.70;;;;;;;17.56;55.40;101464.61;109877;1265;1002367;-56
2023/11/02 01:11:34;;;;;;;7.60;6.80;;;;;;;17.69;55.29;101457.57;110582;1256;23058;-57
2023/11/02 01:14:13;;;;;;;7.60;6.90;;;;;;;17.66;55.58;101451.02;110835;1253;22403;-60
2023/11/02 01:16:40;;;;;;;8.00;6.80;;;;;;;17.61;55.99;101440.17;110805;1253;22330;-55
2023/11/02 01:19:07;;;;;;;7.80;6.90;;;;;;;17.56;56.65;101437.57;110625;1257;22896;-56
2023/11/02 01:21:33;;;;;;;8.00;7.20;;;;;;;17.55;57.18;101441.66;110561;1257;22440;-62
2023/11/02 01:24:02;;;;;;;7.50;6.80;;;;;;;17.55;57.43;101443.77;110541;1266;22356;-55
2023/11/02 01:26:57;;;;;;;8.00;7.20;;;;;;;17.54;57.92;101445.22;110843;1253;22466;-55
2023/11/02 01:29:29;;;;;;;7.40;6.80;;;;;;;17.52;58.26;101446.52;110774;1254;22350;-57
2023/11/02 01:31:55;;;;;;;9.00;7.00;;;;;;;17.53;58.55;101452.60;110764;1253;22325;-56
2023/11/02 01:34:23;;;;;;;7.20;6.50;;;;;;;17.54;58.66;101458.17;110786;1263;22671;-56
2023/11/02 01:36:51;;;;;;;7.20;6.50;;;;;;;17.55;58.75;101464.80;110795;1263;22398;-55
2023/11/02 01:39:18;;;;;;;7.00;6.10;;;;;;;17.55;58.53;101467.27;110590;1257;22558;-57
2023/11/02 01:42:03;;;;;;;7.10;6.40;;;;;;;17.56;58.30;101468.98;110866;1257;23164;-56
2023/11/02 01:44:59;;;;;;;6.70;6.10;;;;;;;17.59;58.26;101475.55;110745;1261;22122;-56
2023/11/02 01:47:36;;;;;;;6.70;6.10;;;;;;;17.61;58.23;101473.85;110752;1254;22497;-56
2023/11/02 01:50:12;;;;;;;6.60;6.00;;;;;;;17.65;58.18;101476.71;110732;1264;22154;-55
2023/11/02 01:53:01;;;;;;;7.90;6.40;;;;;;;17.64;58.06;101476.90;108290;1263;1002336;-54
2023/11/02 01:55:46;;;;;;;8.10;7.20;;;;;;;17.63;58.15;101477.81;110698;1263;22448;-54
2023/11/02 01:58:19;;;;;;;6.70;6.10;;;;;;;17.66;58.06;101478.93;110644;1263;22480;-56
2023/11/02 02:01:14;;;;;;;7.30;6.50;;;;;;;17.69;57.92;101476.36;110648;1263;22402;-56
2023/11/02 02:04:02;;;;;;;7.20;6.50;;;;;;;17.70;57.86;101476.84;110631;1256;22345;-58
2023/11/02 02:07:08;;;;;;;7.30;6.40;;;;;;;17.68;57.69;101479.88;110714;1260;23297;-54
2023/11/02 02:10:07;;;;;;;6.60;6.00;;;;;;;17.65;57.85;101480.74;110552;1264;22292;-54
2023/11/02 02:12:45;;;;;;;6.30;5.70;;;;;;;17.64;57.88;101483.76;110797;1253;22155;-54
2023/11/02 02:15:31;;;;;;;7.20;6.60;;;;;;;17.66;57.58;101480.52;110427;1264;22293;-57
2023/11/02 02:18:13;;;;;;;7.70;6.80;;;;;;;17.67;57.68;101482.92;110681;1254;22188;-54
2023/11/02 02:20:41;;;;;;;;;;;;;;;17.65;57.81;101480.91;110752;1253;22487;-54
2023/11/02 02:23:19;;;;;;;7.90;6.90;;;;;;;17.62;57.73;101479.60;110785;1253;22745;-54
2023/11/02 02:26:14;;;;;;;7.60;6.80;;;;;;;17.61;57.92;101481.59;110803;1253;22154;-55
2023/11/02 02:29:11;;;;;;;7.20;6.50;;;;;;;17.62;58.02;101477.34;110639;1252;22320;-55
2023/11/02 02:32:15;;;;;;;7.60;6.70;;;;;;;17.64;57.82;101477.81;110711;1255;22955;-53
2023/11/02 02:34:58;;;;;;;7.30;6.40;;;;;;;17.64;57.81;101479.02;110808;1267;22158;-56
2023/11/02 02:37:38;;;;;;;7.20;6.50;;;;;;;17.64;57.72;101481.13;110651;1256;22343;-54
2023/11/02 02:40:07;;;;;;;7.80;6.70;;;;;;;17.63;57.75;101477.84;110870;1251;22189;-59
2023/11/02 02:42:37;;;;;;;7.60;6.70;;;;;;;17.63;57.81;101473.80;110394;1260;22139;-54
2023/11/02 02:45:07;;;;;;;8.20;7.10;;;;;;;17.64;57.78;101476.56;108939;1259;1002318;-58
2023/11/02 02:47:37;;;;;;;7.20;6.10;;;;;;;17.65;57.81;101476.71;110510;1260;23108;-57
2023/11/02 02:50:07;;;;;;;7.20;6.50;;;;;;;17.66;57.84;101477.16;110559;1251;305532;-55
2023/11/02 02:52:33;;;;;;;7.70;7.00;;;;;;;17.65;57.68;101473.36;110633;1256;22324;-54
2023/11/02 02:55:00;;;;;;;10.00;7.90;;;;;;;17.62;57.96;101470.48;110644;1254;22428;-56
2023/11/02 02:57:30;;;;;;;8.20;7.10;;;;;;;17.61;58.02;101469.51;110600;1261;22306;-54
2023/11/02 02:59:59;;;;;;;8.90;7.70;;;;;;;17.61;58.25;101476.48;110772;1257;22256;-57
2023/11/02 03:02:30;;;;;;;7.70;6.90;;;;;;;17.61;58.16;101478.61;110572;1270;22448;-55
2023/11/02 03:04:57;;;;;;;7.50;6.70;;;;;;;17.60;58.21;101483.71;110811;1253;22137;-56
2023/11/02 03:07:25;;;;;;;8.10;7.30;;;;;;;17.60;58.16;101480.76;110473;1254;22135;-54
2023/11/02 03:09:55;;;;;;;8.00;7.30;;;;;;;17.60;58.21;101481.96;110598;1254;22142;-58
2023/11/02 03:12:34;;;;;;;8.00;7.20;;;;;;;17.60;58.30;101478.98;110677;1256;22446;-56
2023/11/02 03:15:05;;;;;;;8.00;7.20;;;;;;;17.61;58.23;101480.54;110596;1267;22162;-54
2023/11/02 03:17:35;;;;;;;6.80;6.10;;;;;;;17.64;58.32;101481.12;110656;1260;22170;-55
2023/11/02 03:20:03;;;;;;;6.70;6.00;;;;;;;17.69;58.20;101479.88;110399;1266;22159;-58
2023/11/02 03:22:30;;;;;;;6.70;5.80;;;;;;;17.70;57.80;101481.58;110519;1266;22227;-53
2023/11/02 03:25:00;;;;;;;6.80;5.70;;;;;;;17.73;57.48;101486.38;110775;1261;23245;-54
2023/11/02 03:27:55;;;;;;;6.50;5.20;;;;;;;17.76;56.98;101480.30;110648;1254;22410;-57
2023/11/02 03:30:32;;;;;;;5.90;5.30;;;;;;;17.78;56.67;101483.20;110770;1253;22406;-54
2023/11/02 03:33:09;;;;;;;5.70;5.20;;;;;;;17.78;56.44;101481.60;110658;1256;22355;-54
2023/11/02 03:35:51;;;;;;;5.50;4.40;;;;;;;17.80;56.24;101484.84;110417;1260;22408;-55
2023/11/02 03:38:33;;;;;;;5.60;4.90;;;;;;;17.83;55.81;101483.52;110586;1268;22573;-54
2023/11/02 03:41:18;;;;;;;;;;;;;;;17.86;55.57;101487.63;110619;1256;23243;-54
2023/11/02 03:44:07;;;;;;;7.30;4.30;;;;;;;17.88;55.06;101490.33;110760;1266;22340;-54
2023/11/02 03:46:50;;;;;;;6.80;4.70;;;;;;;17.83;54.93;101493.16;110564;1265;22417;-53
2023/11/02 03:49:23;;;;;;;6.00;4.80;;;;;;;17.79;54.92;101491.04;110642;1254;23238;-55
2023/11/02 03:52:10;;;;;;;4.60;3.80;;;;;;;17.80;54.79;101493.63;110797;1253;22385;-59
2023/11/02 03:55:00;;;;;;;6.40;4.00;;;;;;;17.88;54.45;101495.27;110790;1261;22380;-54
2023/11/02 03:57:30;;;;;;;3.80;3.50;;;;;;;17.98;54.10;101496.27;110619;1256;22342;-56
2023/11/02 04:00:18;;;;;;;4.50;4.10;;;;;;;17.98;53.69;101500.46;110782;1259;22648;-54
2023/11/02 04:02:45;;;;;;;5.20;3.80;;;;;;;17.88;53.77;101504.55;110589;1253;22347;-53
2023/11/02 04:05:24;;;;;;;4.90;4.00;;;;;;;17.97;53.54;101508.40;110602;1254;22126;-53
2023/11/02 04:08:12;;;;;;;5.30;4.10;;;;;;;17.93;53.26;101509.81;110795;1250;22132;-53
2023/11/02 04:11:04;;;;;;;4.60;3.20;;;;;;;17.88;53.38;101512.09;110329;1274;22322;-54
2023/11/02 04:13:40;;;;;;;4.20;3.80;;;;;;;17.96;53.01;101511.95;110182;1270;23012;-55
2023/11/02 04:16:07;;;;;;;4.30;3.90;;;;;;;17.98;52.74;101510.84;110130;1269;22977;-54
2023/11/02 04:18:33;;;;;;;3.60;3.30;;;;;;;17.99;52.70;101505.90;110143;1267;22850;-53
2023/11/02 04:21:00;;;;;;;4.60;3.60;;;;;;;17.92;52.69;101503.52;110184;1257;22181;-57
2023/11/02 04:23:27;;;;;;;5.10;3.80;;;;;;;17.89;52.61;101507.34;110009;1275;22225;-53
2023/11/02 04:25:55;;;;;;;4.20;3.50;;;;;;;17.85;52.63;101505.72;110145;1269;22158;-56
2023/11/02 04:28:23;;;;;;;3.80;3.40;;;;;;;17.83;52.61;101507.55;110170;1263;22956;-53
2023/11/02 04:30:49;;;;;;;4.20;3.80;;;;;;;17.83;52.49;101511.07;110131;1262;22140;-54
2023/11/02 04:33:16;;;;;;;4.20;3.80;;;;;;;17.83;52.60;101511.76;110158;1269;22463;-54
2023/11/02 04:35:43;;;;;;;4.00;3.40;;;;;;;17.86;52.40;101510.61;110156;1263;22324;-53
2023/11/02 04:38:10;;;;;;;3.90;3.50;;;;;;;17.89;52.24;101516.29;110183;1266;22314;-55
2023/11/02 04:40:39;;;;;;;4.00;3.60;;;;;;;17.92;52.17;101514.59;110155;1269;22850;-57
2023/11/02 04:43:06;;;;;;;4.90;3.40;;;;;;;17.95;52.10;101519.58;110130;1257;22242;-54
2023/11/02 04:45:34;;;;;;;7.50;4.50;;;;;;;17.97;52.09;101525.45;110168;1265;22153;-53
2023/11/02 04:48:02;;;;;;;4.20;3.70;;;;;;;17.97;51.91;101528.63;110144;1257;22312;-55
2023/11/02 04:50:29;;;;;;;4.80;3.50;;;;;;;17.93;51.72;101529.81;110378;1262;22321;-53
2023/11/02 04:52:56;;;;;;;3.70;3.40;;;;;;;17.93;51.82;101539.13;110534;1256;22578;-54
2023/11/02 04:55:23;;;;;;;4.20;3.30;;;;;;;17.91;51.68;101548.52;110861;1262;23101;-59
2023/11/02 04:57:49;;;;;;;6.00;5.50;;;;;;;17.92;51.78;101555.85;110493;1265;22351;-53
2023/11/02 05:00:17;;;;;;;7.40;6.70;;;;;;;17.95;51.80;101554.52;110793;1251;22974;-55
2023/11/02 05:02:44;;;;;;;7.20;6.50;;;;;;;17.97;52.18;101549.16;110815;1251;22198;-53
2023/11/02 05:05:11;;;;;;;7.30;6.70;;;;;;;17.99;52.42;101545.91;110615;1260;22141;-54
2023/11/02 05:07:38;;;;;;;7.20;6.50;;;;;;;18.00;52.70;101543.92;110650;1255;23197;-54
2023/11/02 05:10:06;;;;;;;7.90;6.90;;;;;;;18.00;52.86;101546.74;110593;1257;22459;-53
2023/11/02 05:12:32;;;;;;;7.90;7.10;;;;;;;18.00;52.94;101546.90;110220;1261;22313;-57
2023/11/02 05:14:59;;;;;;;8.10;7.30;;;;;;;18.00;52.94;101544.83;110843;1262;22143;-54
2023/11/02 05:17:26;;;;;;;8.20;7.30;;;;;;;18.00;53.05;101542.52;110804;1253;22341;-54
2023/11/02 05:19:57;;;;;;;5.70;5.00;;;;;;;17.99;53.16;101535.38;110816;1258;22134;-54
2023/11/02 05:22:24;;;;;;;7.70;5.10;;;;;;;17.99;52.96;101533.09;110838;1251;22354;-53
2023/11/02 05:24:51;;;;;;;4.70;4.10;;;;;;;17.98;52.93;101534.71;110484;1254;22268;-54
2023/11/02 05:27:18;;;;;;;5.30;3.70;;;;;;;17.97;53.14;101540.19;110400;1272;22815;-55
2023/11/02 05:29:45;;;;;;;4.20;3.70;;;;;;;17.99;53.09;101547.64;110427;1266;23228;-53
2023/11/02 05:32:12;;;;;;;4.00;3.50;;;;;;;18.01;52.88;101548.09;110632;1254;22149;-56
2023/11/02 05:34:38;;;;;;;3.40;3.10;;;;;;;18.02;52.71;101543.66;110551;1269;22296;-53
2023/11/02 05:37:05;;;;;;;3.40;3.10;;;;;;;18.02;52.50;101544.38;110848;1253;22275;-58
2023/11/02 05:39:32;;;;;;;3.40;3.10;;;;;;;18.01;52.28;101544.08;110806;1258;22140;-56
2023/11/02 05:41:59;;;;;;;4.00;3.30;;;;;;;17.99;52.12;101544.53;110765;1261;22469;-56
2023/11/02 05:44:26;;;;;;;3.70;3.40;;;;;;;17.97;52.19;101543.55;110834;1253;22373;-53
2023/11/02 05:46:53;;;;;;;3.90;3.40;;;;;;;17.96;52.17;101540.23;110810;1249;22145;-53
2023/11/02 05:49:20;;;;;;;4.50;3.70;;;;;;;17.97;52.26;101541.27;110589;1257;23110;-53
2023/11/02 05:51:47;;;;;;;4.90;3.80;;;;;;;17.96;52.43;101539.19;110769;1252;22384;-56
2023/11/02 05:54:14;;;;;;;3.90;3.30;;;;;;;17.96;52.50;101539.71;110555;1255;23120;-54
2023/11/02 05:56:40;;;;;;;4.40;3.60;;;;;;;17.96;52.54;101535.83;110603;1254;22467;-54
2023/11/02 05:59:07;;;;;;;4.00;3.60;;;;;;;17.98;52.48;101530.84;110805;1262;22384;-53
2023/11/02 06:01:34;;;;;;;4.60;3.50;;;;;;;18.00;52.56;101532.88;110483;1273;23166;-55
2023/11/02 06:04:02;;;;;;;5.10;4.30;;;;;;;18.00;52.59;101531.63;106969;1249;1002963;-53
2023/11/02 06:06:29;;;;;;;4.00;3.70;;;;;;;18.01;52.77;101534.92;110846;1253;22307;-53
2023/11/02 06:08:56;;;;;;;4.10;3.70;;;;;;;18.02;52.70;101538.41;110763;1251;22120;-54
2023/11/02 06:11:23;;;;;;;4.90;4.10;;;;;;;18.02;52.84;101541.55;110843;1259;22376;-53
2023/11/02 06:13:50;;;;;;;4.50;4.10;;;;;;;18.05;52.72;101534.44;110794;1253;22298;-53
2023/11/02 06:16:17;;;;;;;5.60;4.40;;;;;;;18.17;52.54;101527.09;110829;1261;22994;-53
2023/11/02 06:18:44;;;;;;;10.10;4.40;;;;;;;18.12;52.68;101530.81;110813;1258;22433;-58
2023/11/02 06:21:11;;;;;;;6.10;4.50;;;;;;;18.12;52.87;101538.50;110594;1256;22446;-53
2023/11/02 06:23:37;;;;;;;5.50;4.00;;;;;;;18.17;52.85;101536.73;110766;1259;22306;-55
2023/11/02 06:26:04;;;;;;;4.80;4.00;;;;;;;18.19;52.86;101527.35;110802;1262;22330;-53
2023/11/02 06:28:31;;;;;;;6.60;5.30;;;;;;;18.24;52.88;101527.16;110421;1270;22266;-60
2023/11/02 06:30:59;;;;;;;7.20;5.60;;;;;;;18.34;52.75;101535.52;110862;1256;22163;-53
2023/11/02 06:33:27;;;;;;;6.50;5.80;;;;;;;18.38;52.69;101546.94;110792;1259;22413;-56
2023/11/02 06:35:57;;;;;;;5.30;4.70;;;;;;;18.42;52.70;101544.82;110635;1256;22341;-53
2023/11/02 06:38:25;;;;;;;5.60;5.00;;;;;;;18.44;52.57;101540.56;110493;1255;23131;-53
2023/11/02 06:40:51;;;;;;;5.40;4.60;;;;;;;18.45;52.69;101538.77;110494;1256;22392;-57
2023/11/02 06:43:18;;;;;;;6.10;5.30;;;;;;;18.48;52.84;101539.54;110756;1257;22299;-55
2023/11/02 06:45:46;;;;;;;5.40;4.90;;;;;;;18.50;52.64;101535.55;110830;1253;22119;-55
2023/11/02 06:48:12;;;;;;;5.70;5.10;;;;;;;18.50;52.55;101527.98;110764;1251;22360;-53
2023/11/02 06:50:39;;;;;;;6.00;4.50;;;;;;;18.50;52.71;101521.50;110801;1253;22379;-53
2023/11/02 06:53:06;;;;;;;4.90;4.50;;;;;;;18.49;52.91;101516.80;110860;1262;22399;-54
2023/11/02 06:55:34;;;;;;;5.00;4.50;;;;;;;18.47;53.09;101517.43;110826;1262;22292;-54
2023/11/02 06:58:00;;;;;;;6.90;4.90;;;;;;;18.49;53.26;101518.05;110819;1250;22156;-53
2023/11/02 07:00:28;;;;;;;4.90;4.50;;;;;;;18.52;53.31;101515.27;110818;1249;22375;-58
2023/11/02 07:02:55;;;;;;;5.40;4.90;;;;;;;18.54;53.29;101520.27;110492;1257;23244;-59
2023/11/02 07:05:22;;;;;;;6.70;5.20;;;;;;;18.58;53.38;101518.16;110347;1260;22309;-53
2023/11/02 07:07:49;;;;;;;7.50;5.90;;;;;;;18.62;53.42;101516.05;110767;1259;22327;-53
2023/11/02 07:10:17;;;;;;;9.30;5.70;;;;;;;18.65;53.31;101515.91;110832;1253;22553;-55
2023/11/02 07:12:44;;;;;;;7.40;6.40;;;;;;;18.70;53.41;101513.09;110656;1256;22379;-57
2023/11/02 07:15:11;;;;;;;5.90;5.30;;;;;;;18.74;53.23;101512.02;110491;1254;22172;-53
2023/11/02 07:17:38;;;;;;;5.90;5.40;;;;;;;18.76;53.42;101506.30;110743;1252;22771;-53
2023/11/02 07:20:06;;;;;;;6.80;6.10;;;;;;;18.80;53.43;101502.81;110853;1253;22299;-55
2023/11/02 07:22:33;;;;;;;6.30;5.60;;;;;;;18.84;53.47;101497.88;110595;1256;22217;-57
2023/11/02 07:25:01;;;;;;;7.10;5.70;;;;;;;18.85;53.60;101500.80;110859;1259;22209;-53
2023/11/02 07:27:30;;;;;;;6.00;5.40;;;;;;;18.89;53.87;101505.59;110809;1253;22361;-54
2023/11/02 07:29:59;;;;;;;6.80;6.10;;;;;;;18.94;53.86;101499.89;110722;1266;22282;-53
2023/11/02 07:32:26;;;;;;;9.20;6.30;;;;;;;19.00;53.94;101498.36;110741;1266;22120;-53
2023/11/02 07:34:53;;;;;;;7.10;6.40;;;;;;;19.08;53.87;101501.52;110796;1249;22441;-54
2023/11/02 07:37:19;;;;;;;6.80;6.20;;;;;;;19.14;54.01;101507.59;110790;1259;22171;-55
2023/11/02 07:39:46;;;;;;;6.50;5.80;;;;;;;19.20;53.88;101512.23;110754;1249;22299;-56
2023/11/02 07:42:13;;;;;;;5.40;4.90;;;;;;;19.27;54.01;101512.77;110499;1265;22150;-54
2023/11/02 07:44:43;;;;;;;5.60;5.00;;;;;;;19.36;53.75;101507.50;110611;1252;22479;-58
2023/11/02 07:47:09;;;;;;;7.10;5.30;;;;;;;19.42;53.67;101499.43;110461;1258;22392;-54
2023/11/02 07:49:38;;;;;;;6.60;5.70;;;;;;;19.47;53.65;101495.86;110741;1250;22477;-53
2023/11/02 07:52:06;;;;;;;5.80;5.20;;;;;;;19.51;53.71;101496.92;110505;1272;22932;-53
2023/11/02 07:54:37;;;;;;;5.10;4.70;;;;;;;19.55;53.72;101496.42;110842;1250;22149;-53
2023/11/02 07:57:07;;;;;;;4.90;4.50;;;;;;;19.58;53.91;101499.58;110657;1252;22450;-54
2023/11/02 07:59:35;;;;;;;6.30;4.40;;;;;;;19.63;53.78;101497.77;110805;1253;22214;-54
2023/11/02 08:02:03;;;;;;;7.40;5.20;;;;;;;19.68;53.83;101501.23;110831;1249;22712;-54
2023/11/02 08:04:30;;;;;;;5.90;5.10;;;;;;;19.73;53.97;101501.34;110435;1267;22150;-56
2023/11/02 08:06:59;;;;;;;5.50;5.00;;;;;;;19.80;54.08;101508.55;110712;1251;22935;-53
2023/11/02 08:09:26;;;;;;;5.60;4.10;;;;;;;19.88;54.22;101513.81;110510;1256;22655;-54
2023/11/02 08:11:58;;;;;;;3.90;3.10;;;;;;;19.95;53.98;101515.59;110796;1256;22265;-56
2023/11/02 08:14:28;;;;;;;3.20;2.90;;;;;;;20.02;53.61;101513.14;110714;1257;22142;-55
2023/11/02 08:16:54;;;;;;;3.90;2.20;;;;;;;20.08;52.87;101498.91;110860;1262;22396;-56
2023/11/02 08:19:21;;;;;;;1.80;1.40;;;;;;;20.15;51.79;101485.70;110808;1253;22305;-57
2023/11/02 08:21:48;;;;;;;1.60;1.40;;;;;;;20.21;50.96;101474.67;110789;1259;22412;-53
2023/11/02 08:24:16;;;;;;;3.90;1.40;;;;;;;20.28;50.46;101474.12;110810;1250;22494;-53
2023/11/02 08:26:42;;;;;;;1.40;1.30;;;;;;;20.38;49.41;101478.73;110817;1259;22458;-55
2023/11/02 08:29:09;;;;;;;4.40;1.20;;;;;;;20.45;48.69;101484.37;110502;1257;22214;-53
2023/11/02 08:31:36;;;;;;;1.90;1.10;;;;;;;20.52;48.07;101482.41;110733;1252;22425;-53
2023/11/02 08:34:03;;;;;;;2.00;1.10;;;;;;;20.57;47.34;101486.19;110431;1270;22477;-56
2023/11/02 08:36:34;;;;;;;4.20;1.30;;;;;;;20.62;47.20;101482.09;110787;1250;22331;-53
2023/11/02 08:39:01;;;;;;;1.50;1.20;;;;;;;20.66;46.90;101473.41;110721;1258;22443;-53
2023/11/02 08:41:32;;;;;;;3.20;1.20;;;;;;;20.69;46.65;101469.03;110720;1265;22208;-57
2023/11/02 08:43:59;;;;;;;1.10;1.00;;;;;;;20.73;46.21;101477.63;110746;1252;22140;-54
2023/11/02 08:46:26;;;;;;;1.20;1.10;;;;;;;20.79;46.00;101487.34;110557;1273;22344;-60
2023/11/02 08:48:55;;;;;;;2.00;1.30;;;;;;;20.83;45.49;101482.20;110795;1253;22375;-56
2023/11/02 08:51:23;;;;;;;3.70;1.60;;;;;;;20.87;45.38;101465.77;110818;1253;22143;-53
2023/11/02 08:53:50;;;;;;;1.20;1.10;;;;;;;20.89;45.55;101460.88;110758;1252;22325;-53
2023/11/02 08:56:17;;;;;;;2.30;1.10;;;;;;;20.90;44.84;101469.82;110731;1253;22293;-53
2023/11/02 08:58:52;;;;;;;1.90;1.20;;;;;;;20.89;44.45;101465.45;110731;1266;22614;-53
2023/11/02 09:01:22;;;;;;;1.70;1.20;;;;;;;20.91;44.85;101465.88;110779;1256;22364;-60
2023/11/02 09:03:53;;;;;;;2.10;1.30;;;;;;;20.93;45.09;101469.50;110837;1250;23246;-52
2023/11/02 09:06:20;;;;;;;1.90;1.10;;;;;;;20.94;44.93;101463.97;110753;1253;22639;-53
2023/11/02 09:08:51;;;;;;;1.00;1.00;;;;;;;20.94;44.60;101456.70;110742;1259;22319;-52
2023/11/02 09:11:18;;;;;;;1.20;1.10;;;;;;;20.95;44.47;101447.17;110474;1255;22833;-55
2023/11/02 09:13:45;;;;;;;1.70;1.20;;;;;;;20.97;44.85;101440.50;110731;1273;22523;-55
2023/11/02 09:16:12;;;;;;;1.80;1.00;;;;;;;21.01;44.93;101441.19;110484;1266;22333;-56
2023/11/02 09:18:38;;;;;;;1.80;1.10;;;;;;;21.08;44.47;101438.02;110471;1258;22292;-53
2023/11/02 09:27:00;;;;;;;1.50;1.00;;;;;;;19.33;48.74;101414.79;104650;1289;561282;-51
2023/11/02 09:29:28;;;;;;;1.40;1.20;;;;;;;20.89;45.06;101394.92;106257;1282;25350;-50
2023/11/02 09:31:55;;;;;;;1.00;0.90;;;;;;;21.13;44.27;101394.18;106250;1280;22536;-51
2023/11/02 09:34:31;;;;;;;1.00;1.00;;;;;;;21.28;43.88;101393.70;106182;1282;25352;-50
2023/11/02 09:36:59;;;;;;;1.40;1.20;;;;;;;21.32;43.19;101391.34;106661;1273;25483;-50
2023/11/02 09:39:29;;;;;;;1.10;1.00;;;;;;;21.34;43.19;101394.23;106257;1270;297065;-51
2023/11/02 09:41:56;;;;;;;1.00;0.90;;;;;;;21.34;43.36;101405.02;106779;1270;23892;-51
2023/11/02 09:44:23;;;;;;;2.50;1.20;;;;;;;21.30;43.11;101413.50;106499;1271;25517;-50
2023/11/02 09:46:53;;;;;;;1.10;1.00;;;;;;;21.33;43.10;101405.39;106831;1254;22540;-51
2023/11/02 09:49:20;;;;;;;2.10;0.90;;;;;;;21.36;43.38;101395.20;106835;1257;22743;-51
2023/11/02 09:51:48;;;;;;;1.60;1.50;;;;;;;21.39;43.30;101391.12;106807;1257;25343;-50
2023/11/02 09:54:15;;;;;;;1.30;1.10;;;;;;;21.43;43.16;101391.05;106723;1259;22726;-51
2023/11/02 09:56:42;;;;;;;1.40;1.30;;;;;;;21.46;42.84;101387.52;107083;1254;22519;-50
2023/11/02 09:59:09;;;;;;;1.00;0.90;;;;;;;21.40;42.67;101393.36;106663;1267;22599;-50
2023/11/02 10:01:36;;;;;;;1.20;1.10;;;;;;;21.47;41.91;101394.19;107020;1270;25375;-50
2023/11/02 10:04:04;;;;;;;1.40;0.90;;;;;;;21.46;42.09;101397.05;107053;1269;25319;-50
2023/11/02 10:06:32;;;;;;;1.50;1.20;;;;;;;21.43;42.08;101396.52;107135;1267;22531;-51
2023/11/02 10:09:00;;;;;;;1.60;0.90;;;;;;;21.39;42.24;101391.66;107034;1267;25340;-51
2023/11/02 10:11:27;;;;;;;1.50;1.00;;;;;;;21.35;42.54;101391.02;107217;1266;26623;-50
2023/11/02 10:13:56;;;;;;;1.60;0.90;;;;;;;21.31;42.93;101395.99;106950;1267;25834;-51
2023/11/02 10:16:23;;;;;;;2.80;1.10;;;;;;;21.29;42.56;101398.39;107146;1270;22520;-51
2023/11/02 10:18:51;;;;;;;1.40;0.90;;;;;;;21.29;42.17;101396.12;107076;1266;24682;-50
2023/11/02 10:21:19;;;;;;;2.80;1.00;;;;;;;21.28;41.80;101389.80;107099;1254;22531;-50
2023/11/02 10:23:55;;;;;;;2.30;1.10;;;;;;;21.26;42.27;101384.98;107163;1261;25341;-50
2023/11/02 10:26:24;;;;;;;4.60;1.10;;;;;;;21.27;41.73;101375.41;107260;1260;25474;-50
2023/11/02 10:28:54;;;;;;;1.80;0.90;;;;;;;21.27;41.79;101370.83;107156;1267;22649;-52
2023/11/02 10:31:24;;;;;;;1.10;1.00;;;;;;;21.26;41.87;101377.90;107138;1266;22524;-49
2023/11/02 10:33:51;;;;;;;1.20;1.00;;;;;;;21.26;42.09;101378.11;106927;1270;24249;-51
2023/11/02 10:36:19;;;;;;;1.70;1.00;;;;;;;21.23;42.21;101371.88;107070;1267;24536;-49
2023/11/02 10:38:46;;;;;;;2.20;1.00;;;;;;;21.23;42.53;101372.95;107103;1271;22532;-50
2023/11/02 10:41:16;;;;;;;1.80;1.20;;;;;;;21.23;42.48;101367.52;107109;1267;25357;-50
2023/11/02 10:43:45;;;;;;;1.10;1.00;;;;;;;21.23;42.35;101362.56;107203;1267;22990;-50
2023/11/02 10:46:13;;;;;;;2.60;1.00;;;;;;;21.23;42.47;101360.23;106797;1273;25344;-50
2023/11/02 10:48:40;;;;;;;1.50;0.90;;;;;;;21.22;42.94;101358.73;107229;1270;25487;-49
2023/11/02 10:51:18;;;;;;;3.20;1.20;;;;;;;21.25;42.97;101358.02;107209;1267;25392;-49
2023/11/02 10:53:59;;;;;;;1.30;1.20;;;;;;;21.27;43.09;101362.48;107097;1267;22653;-50
2023/11/02 10:56:27;;;;;;;1.30;0.90;;;;;;;21.28;43.06;101358.38;107332;1266;25374;-50
2023/11/02 10:58:56;;;;;;;1.90;1.10;;;;;;;21.30;42.79;101360.60;107500;1263;23017;-50
2023/11/02 11:01:24;;;;;;;1.80;1.40;;;;;;;21.29;42.65;101365.59;107403;1260;22627;-50
2023/11/02 11:03:52;;;;;;;2.30;1.20;;;;;;;21.25;42.33;101368.23;106977;1273;22526;-49
2023/11/02 11:06:20;;;;;;;0.60;0.60;;;;;;;21.21;42.06;101376.45;107162;1267;22543;-51
2023/11/02 11:08:48;;;;;;;1.60;1.20;;;;;;;21.17;42.02;101380.39;107227;1266;25392;-51
2023/11/02 11:11:15;;;;;;;1.30;1.00;;;;;;;21.15;42.62;101373.45;107100;1267;22383;-49
2023/11/02 11:13:44;;;;;;;1.10;0.90;;;;;;;21.14;42.54;101371.55;107207;1267;22642;-51
2023/11/02 11:16:11;;;;;;;1.20;1.10;;;;;;;21.15;42.48;101370.42;107338;1257;25393;-51
2023/11/02 11:18:39;;;;;;;1.30;0.80;;;;;;;21.15;42.24;101370.59;107013;1269;22542;-52
2023/11/02 11:21:06;;;;;;;2.00;1.00;;;;;;;21.15;42.32;101372.20;107190;1255;22578;-51
2023/11/02 11:23:36;;;;;;;3.10;1.10;;;;;;;21.15;42.04;101367.76;107141;1267;25337;-51
2023/11/02 11:26:04;;;;;;;2.30;1.10;;;;;;;21.15;42.20;101371.99;106950;1274;22648;-51
2023/11/02 11:28:33;;;;;;;1.50;1.00;;;;;;;21.14;42.28;101370.83;106820;1267;22652;-50
2023/11/02 11:31:57;;;;;;;1.60;1.20;;;;;;;21.12;42.80;101368.10;106802;1269;22523;-50
2023/11/02 11:34:24;;;;;;;1.30;0.70;;;;;;;21.11;42.58;101369.95;106747;1259;22595;-50
2023/11/02 11:37:17;;;;;;;1.20;0.90;;;;;;;21.10;42.56;101373.17;106512;1270;24467;-50
2023/11/02 11:39:52;;;;;;;1.90;1.10;;;;;;;21.13;42.65;101363.16;106740;1270;25519;-50